createdAt,value
2019-05-18T00:01:27.336Z,102428.94
2019-05-18T00:06:59.049Z,102426.11
2019-05-18T00:10:07.924Z,102425.17
2019-05-18T00:13:16.672Z,102426.94
2019-05-18T00:15:46.099Z,102425.25
2019-05-18T00:18:15.760Z,102424.53
2019-05-18T00:21:24.743Z,102425.11
2019-05-18T00:26:55.976Z,102425.11
2019-05-18T00:30:04.615Z,102419.83
2019-05-18T00:33:13.507Z,102418.52
2019-05-18T00:38:57.408Z,102426.61
2019-05-18T00:42:06.033Z,102423.16
2019-05-18T00:44:36.704Z,102426.86
2019-05-18T00:47:40.334Z,102416.99
2019-05-18T00:49:58.244Z,102416.95
2019-05-18T00:55:42.516Z,102414.86
2019-05-18T00:58:12.239Z,102410.45
2019-05-18T01:01:21.312Z,102411.16
2019-05-18T01:03:51.127Z,102413.13
2019-05-18T01:06:20.511Z,102412.27
2019-05-18T01:08:49.974Z,102413.58
2019-05-18T01:14:28.531Z,102414.31
2019-05-18T01:20:46.514Z,102413.74
2019-05-18T01:23:16.638Z,102409.87
2019-05-18T01:25:46.282Z,102415.28
2019-05-18T01:31:11.744Z,102415.07
2019-05-18T01:33:41.111Z,102417.13
2019-05-18T01:36:10.757Z,102415.78
2019-05-18T01:38:40.389Z,102409.08
2019-05-18T01:41:09.781Z,102405.87
2019-05-18T01:43:39.126Z,102403.90
2019-05-18T01:46:48.281Z,102406.45
2019-05-18T01:49:18.140Z,102407.80
2019-05-18T01:51:47.646Z,102398.47
2019-05-18T01:54:56.556Z,102396.44
2019-05-18T02:00:16.217Z,102396.67
2019-05-18T02:03:05.559Z,102394.69
2019-05-18T02:05:35.139Z,102394.05
2019-05-18T02:08:04.677Z,102389.53
2019-05-18T02:10:34.301Z,102396.07
2019-05-18T02:15:59.307Z,102396.56
2019-05-18T02:18:29.466Z,102392.36
2019-05-18T02:21:00.578Z,102394.05
2019-05-18T02:23:30.079Z,102393.48
2019-05-18T02:25:59.570Z,102392.16
2019-05-18T02:28:29.193Z,102398.25
2019-05-18T02:30:58.721Z,102397.34
2019-05-18T02:33:28.229Z,102395.62
2019-05-18T02:35:57.618Z,102391.06
2019-05-18T02:39:06.426Z,102399.78
2019-05-18T02:44:31.038Z,102396.95
2019-05-18T02:50:48.534Z,102395.77
2019-05-18T02:56:00.416Z,102391.25
2019-05-18T03:01:38.817Z,102392.06
2019-05-18T03:07:23.849Z,102391.52
2019-05-18T03:09:53.253Z,102390.77
2019-05-18T03:15:19.205Z,102387.38
2019-05-18T03:20:57.953Z,102387.17
2019-05-18T03:23:27.331Z,102391.38
2019-05-18T03:26:15.872Z,102391.48
2019-05-18T03:31:59.871Z,102389.48
2019-05-18T03:37:38.377Z,102391.86
2019-05-18T03:43:22.082Z,102386.05
2019-05-18T03:45:51.621Z,102392.41
2019-05-18T03:48:21.032Z,102386.81
2019-05-18T03:50:50.528Z,102389.09
2019-05-18T03:59:05.605Z,102381.78
2019-05-18T04:01:34.990Z,102381.78
2019-05-18T04:04:04.371Z,102383.58
2019-05-18T04:06:33.792Z,102376.09
2019-05-18T04:12:17.357Z,102370.44
2019-05-18T04:15:26.087Z,102364.85
2019-05-18T04:17:56.134Z,102364.55
2019-05-18T04:20:25.458Z,102360.33
2019-05-18T04:25:51.262Z,102361.77
2019-05-18T04:28:20.771Z,102353.59
2019-05-18T04:30:50.192Z,102352.20
2019-05-18T04:33:19.641Z,102352.68
2019-05-18T04:35:49.363Z,102354.02
2019-05-18T04:38:20.576Z,102351.33
2019-05-18T04:41:29.280Z,102353.54
2019-05-18T04:43:59.039Z,102347.38
2019-05-18T04:46:28.736Z,102340.75
2019-05-18T04:51:54.429Z,102324.13
2019-05-18T04:54:23.808Z,102324.38
2019-05-18T04:56:53.169Z,102314.77
2019-05-18T04:59:22.632Z,102310.52
2019-05-18T05:04:41.179Z,102311.66
2019-05-18T05:07:30.315Z,102310.52
2019-05-18T05:09:59.926Z,102312.23
2019-05-18T05:12:29.403Z,102308.63
2019-05-18T05:17:54.496Z,102302.95
2019-05-18T05:23:39.492Z,102308.11
2019-05-18T05:26:21.762Z,102301.67
2019-05-18T05:28:51.229Z,102297.09
2019-05-18T05:31:20.629Z,102298.24
2019-05-18T05:33:49.993Z,102296.65
2019-05-18T05:36:58.885Z,102295.13
2019-05-18T05:39:28.307Z,102290.66
2019-05-18T05:42:16.603Z,102289.34
2019-05-18T05:44:46.010Z,102289.23
2019-05-18T05:47:15.452Z,102280.74
2019-05-18T05:49:44.824Z,102279.75
2019-05-18T05:52:14.725Z,102278.89
2019-05-18T05:54:44.214Z,102270.03
2019-05-18T05:57:13.616Z,102272.41
2019-05-18T05:59:42.996Z,102267.32
2019-05-18T06:02:12.616Z,102263.14
2019-05-18T06:04:42.021Z,102261.52
2019-05-18T06:07:11.588Z,102259.02
2019-05-18T06:09:41.089Z,102259.46
2019-05-18T06:12:10.471Z,102259.70
2019-05-18T06:17:54.555Z,102257.50
2019-05-18T06:20:24.226Z,102253.13
2019-05-18T06:22:53.676Z,102258.03
2019-05-18T06:28:18.441Z,102246.29
2019-05-18T06:33:49.784Z,102246.33
2019-05-18T06:36:20.653Z,102234.38
2019-05-18T06:38:50.358Z,102235.98
2019-05-18T06:41:59.356Z,102233.22
2019-05-18T06:44:28.865Z,102231.15
2019-05-18T06:47:37.895Z,102234.66
2019-05-18T06:53:23.445Z,102219.95
2019-05-18T07:02:08.433Z,102215.48
2019-05-18T07:04:38.297Z,102210.19
2019-05-18T07:07:08.588Z,102206.96
2019-05-18T07:10:17.321Z,102207.01
2019-05-18T07:12:49.316Z,102213.05
2019-05-18T07:15:57.977Z,102208.22
2019-05-18T07:21:23.752Z,102204.72
2019-05-18T07:23:53.116Z,102207.95
2019-05-18T07:27:02.023Z,102203.06
2019-05-18T07:29:31.423Z,102199.72
2019-05-18T07:32:00.932Z,102193.20
2019-05-18T07:37:45.653Z,102200.59
2019-05-18T07:43:23.778Z,102187.91
2019-05-18T07:49:08.049Z,102179.35
2019-05-18T07:51:37.829Z,102168.20
2019-05-18T07:56:55.528Z,102161.84
2019-05-18T07:59:25.239Z,102159.78
2019-05-18T08:01:54.620Z,102161.03
2019-05-18T08:05:03.357Z,102159.22
2019-05-18T08:07:33.205Z,102162.70
2019-05-18T08:10:02.582Z,102153.23
2019-05-18T08:12:31.957Z,102162.94
2019-05-18T08:15:01.616Z,102160.08
2019-05-18T08:17:31.440Z,102159.02
2019-05-18T08:20:00.911Z,102156.81
2019-05-18T08:22:30.281Z,102155.82
2019-05-18T08:24:59.644Z,102149.73
2019-05-18T08:27:29.144Z,102143.48
2019-05-18T08:29:58.663Z,102147.00
2019-05-18T08:32:28.475Z,102141.81
2019-05-18T08:34:57.866Z,102137.80
2019-05-18T08:37:27.274Z,102137.88
2019-05-18T08:39:57.009Z,102140.29
2019-05-18T08:42:45.403Z,102127.45
2019-05-18T08:48:30.203Z,102131.84
2019-05-18T08:50:59.688Z,102130.36
2019-05-18T08:54:08.489Z,102128.71
2019-05-18T08:56:38.531Z,102133.48
2019-05-18T08:59:07.944Z,102124.41
2019-05-18T09:01:37.416Z,102129.73
2019-05-18T09:04:06.886Z,102126.03
2019-05-18T09:06:36.353Z,102125.89
2019-05-18T09:09:06.949Z,102124.89
2019-05-18T09:11:36.437Z,102122.64
2019-05-18T09:14:06.038Z,102121.27
2019-05-18T09:16:35.737Z,102115.75
2019-05-18T09:19:05.123Z,102125.95
2019-05-18T09:21:34.643Z,102117.50
2019-05-18T09:24:04.216Z,102116.61
2019-05-18T09:26:33.816Z,102110.41
2019-05-18T09:29:03.232Z,102109.61
2019-05-18T09:31:33.345Z,102102.45
2019-05-18T09:34:03.385Z,102104.58
2019-05-18T09:36:52.061Z,102102.30
2019-05-18T09:39:21.823Z,102098.85
2019-05-18T09:41:51.448Z,102104.41
2019-05-18T09:44:20.869Z,102094.61
2019-05-18T09:46:50.357Z,102096.45
2019-05-18T09:49:19.748Z,102087.35
2019-05-18T09:51:49.117Z,102086.30
2019-05-18T09:54:18.532Z,102082.80
2019-05-18T09:56:50.963Z,102082.06
2019-05-18T09:59:20.492Z,102081.71
2019-05-18T10:02:29.405Z,102067.30
2019-05-18T10:04:58.956Z,102062.75
2019-05-18T10:07:28.305Z,102059.16
2019-05-18T10:09:58.244Z,102064.66
2019-05-18T10:13:07.160Z,102060.45
2019-05-18T10:15:36.557Z,102054.61
2019-05-18T10:18:45.409Z,102051.82
2019-05-18T10:21:15.839Z,102050.47
2019-05-18T10:23:45.244Z,102045.91
2019-05-18T10:26:14.661Z,102047.92
2019-05-18T10:28:44.031Z,102045.88
2019-05-18T10:31:13.415Z,102049.78
2019-05-18T10:33:43.831Z,102044.50
2019-05-18T10:36:13.317Z,102040.88
2019-05-18T10:38:42.661Z,102044.29
2019-05-18T10:43:52.575Z,102042.80
2019-05-18T10:46:21.972Z,102041.47
2019-05-18T10:48:51.417Z,102047.64
2019-05-18T10:51:20.796Z,102045.23
2019-05-18T10:56:59.522Z,102036.89
2019-05-18T10:59:28.941Z,102031.94
2019-05-18T11:01:58.350Z,102029.63
2019-05-18T11:04:28.048Z,102028.17
2019-05-18T11:06:57.543Z,102026.22
2019-05-18T11:09:26.918Z,102024.31
2019-05-18T11:11:56.373Z,102018.42
2019-05-18T11:14:25.788Z,102011.88
2019-05-18T11:16:55.275Z,102021.13
2019-05-18T11:19:24.691Z,102018.16
2019-05-18T11:21:54.548Z,102007.39
2019-05-18T11:24:24.112Z,102005.34
2019-05-18T11:26:53.651Z,102002.96
2019-05-18T11:29:24.111Z,102005.70
2019-05-18T11:31:54.098Z,102001.31
2019-05-18T11:34:23.646Z,102002.33
2019-05-18T11:36:53.382Z,101994.26
2019-05-18T11:39:22.814Z,101988.22
2019-05-18T11:41:52.163Z,101982.00
2019-05-18T11:45:00.866Z,101987.06
2019-05-18T11:47:32.154Z,101979.64
2019-05-18T11:50:01.728Z,101982.04
2019-05-18T11:52:31.227Z,101982.15
2019-05-18T11:55:00.591Z,101979.45
2019-05-18T11:57:29.973Z,101975.67
2019-05-18T11:59:59.851Z,101974.85
2019-05-18T12:02:29.293Z,101966.44
2019-05-18T12:04:59.024Z,101957.70
2019-05-18T12:07:28.457Z,101957.17
2019-05-18T12:09:57.864Z,101953.94
2019-05-18T12:12:27.259Z,101959.17
2019-05-18T12:14:56.906Z,101959.47
2019-05-18T12:17:26.378Z,101958.44
2019-05-18T12:19:55.822Z,101956.42
2019-05-18T12:25:21.613Z,101936.69
2019-05-18T12:31:02.143Z,101933.88
2019-05-18T12:33:31.898Z,101933.06
2019-05-18T12:36:01.812Z,101923.41
2019-05-18T12:38:31.741Z,101922.56
2019-05-18T12:41:41.081Z,101916.33
2019-05-18T12:44:12.507Z,101921.87
2019-05-18T12:49:51.167Z,101912.81
2019-05-18T12:52:21.650Z,101906.92
2019-05-18T12:54:51.127Z,101911.13
2019-05-18T13:00:55.599Z,101907.02
2019-05-18T13:03:25.145Z,101908.70
2019-05-18T13:08:50.640Z,101896.06
2019-05-18T13:11:20.250Z,101897.55
2019-05-18T13:14:28.933Z,101896.61
2019-05-18T13:19:37.671Z,101891.48
2019-05-18T13:22:07.429Z,101884.91
2019-05-18T13:24:55.922Z,101876.28
2019-05-18T13:30:28.065Z,101877.52
2019-05-18T13:33:16.508Z,101871.09
2019-05-18T13:35:57.402Z,101865.86
2019-05-18T13:38:26.952Z,101865.86
2019-05-18T13:41:15.831Z,101863.44
2019-05-18T13:44:05.065Z,101860.63
2019-05-18T13:47:13.953Z,101860.63
2019-05-18T13:52:39.074Z,101852.27
2019-05-18T13:55:47.888Z,101854.20
2019-05-18T13:58:56.758Z,101847.94
2019-05-18T14:01:40.806Z,101845.22
2019-05-18T14:04:10.653Z,101838.74
2019-05-18T14:09:50.225Z,101831.28
2019-05-18T14:12:20.237Z,101830.15
2019-05-18T14:14:49.711Z,101825.88
2019-05-18T14:17:19.799Z,101818.58
2019-05-18T14:20:28.513Z,101810.22
2019-05-18T14:25:54.143Z,101812.76
2019-05-18T14:31:32.864Z,101803.98
2019-05-18T14:34:02.372Z,101798.05
2019-05-18T14:39:27.198Z,101798.78
2019-05-18T14:45:44.562Z,101798.39
2019-05-18T14:48:14.004Z,101795.91
2019-05-18T14:50:43.457Z,101790.33
2019-05-18T14:53:12.936Z,101785.28
2019-05-18T14:55:42.385Z,101785.87
2019-05-18T14:58:11.874Z,101779.52
2019-05-18T15:00:41.262Z,101773.53
2019-05-18T15:07:00.295Z,101781.70
2019-05-18T15:12:25.253Z,101772.78
2019-05-18T15:14:55.032Z,101769.96
2019-05-18T15:17:24.621Z,101762.20
2019-05-18T15:19:54.198Z,101763.58
2019-05-18T15:25:48.168Z,101757.53
2019-05-18T15:31:19.604Z,101764.98
2019-05-18T15:34:29.871Z,101766.27
2019-05-18T15:36:59.353Z,101765.47
2019-05-18T15:39:28.876Z,101758.22
2019-05-18T15:42:37.734Z,101756.53
2019-05-18T15:48:22.327Z,101652.52
2019-05-18T15:50:52.308Z,101763.52
2019-05-18T15:53:22.151Z,101762.85
2019-05-18T15:56:04.865Z,101750.88
2019-05-18T15:58:22.980Z,101761.63
2019-05-18T16:01:31.657Z,101756.38
2019-05-18T16:07:10.765Z,101751.23
2019-05-18T16:09:40.441Z,101760.33
2019-05-18T16:12:09.899Z,101755.19
2019-05-18T16:17:38.814Z,101754.72
2019-05-18T16:20:00.067Z,101757.80
2019-05-18T16:25:39.256Z,101757.95
2019-05-18T16:28:08.824Z,101752.02
2019-05-18T16:31:17.711Z,101755.01
2019-05-18T16:33:47.207Z,101749.41
2019-05-18T16:36:16.860Z,101748.42
2019-05-18T16:38:46.539Z,101741.89
2019-05-18T16:44:25.276Z,101742.73
2019-05-18T16:50:04.578Z,101732.95
2019-05-18T16:53:13.887Z,101737.66
2019-05-18T16:56:34.528Z,101730.52
2019-05-18T16:58:56.211Z,101736.25
2019-05-18T17:01:25.707Z,101726.38
2019-05-18T17:06:51.457Z,101732.80
2019-05-18T17:12:32.549Z,101728.27
2019-05-18T17:15:01.982Z,101713.27
2019-05-18T17:17:35.254Z,101720.28
2019-05-18T17:20:03.494Z,101718.77
2019-05-18T17:22:32.832Z,101723.81
2019-05-18T17:25:02.219Z,101715.31
2019-05-18T17:27:31.744Z,101719.37
2019-05-18T17:30:01.414Z,101716.01
2019-05-18T17:32:30.855Z,101711.75
2019-05-18T17:35:39.744Z,101714.20
2019-05-18T17:41:23.814Z,101715.33
2019-05-18T17:44:33.129Z,101707.95
2019-05-18T17:47:02.703Z,101708.45
2019-05-18T17:49:51.376Z,101704.91
2019-05-18T17:52:20.815Z,101704.91
2019-05-18T17:57:58.915Z,101706.09
2019-05-18T18:01:07.998Z,101704.32
2019-05-18T18:04:16.773Z,101697.59
2019-05-18T18:06:46.168Z,101695.55
2019-05-18T18:09:15.569Z,101700.64
2019-05-18T18:11:45.163Z,101696.17
2019-05-18T18:14:15.177Z,101693.69
2019-05-18T18:17:23.862Z,101691.64
2019-05-18T18:20:00.298Z,101689.95
2019-05-18T18:22:36.108Z,101690.08
2019-05-18T18:25:45.215Z,101689.49
2019-05-18T18:28:25.902Z,101686.23
2019-05-18T18:30:55.558Z,101679.98
2019-05-18T18:33:24.987Z,101682.61
2019-05-18T18:36:35.597Z,101680.69
2019-05-18T18:45:26.915Z,101672.77
2019-05-18T18:47:56.496Z,101663.59
2019-05-18T18:50:25.947Z,101660.49
2019-05-18T18:52:55.826Z,101664.98
2019-05-18T18:56:04.577Z,101668.77
2019-05-18T18:58:34.186Z,101666.34
2019-05-18T19:01:03.680Z,101661.97
2019-05-18T19:07:09.214Z,101677.89
2019-05-18T19:09:40.028Z,101677.55
2019-05-18T19:12:09.448Z,101678.08
2019-05-18T19:14:39.126Z,101678.97
2019-05-18T19:17:08.622Z,101684.89
2019-05-18T19:20:17.698Z,101676.03
2019-05-18T19:25:48.809Z,101675.28
2019-05-18T19:28:29.881Z,101671.45
2019-05-18T19:30:59.432Z,101672.38
2019-05-18T19:36:44.532Z,101672.52
2019-05-18T19:39:14.347Z,101667.51
2019-05-18T19:41:44.172Z,101669.85
2019-05-18T19:44:13.667Z,101667.52
2019-05-18T19:46:43.140Z,101669.69
2019-05-18T19:55:03.786Z,101665.91
2019-05-18T19:57:34.542Z,101659.33
2019-05-18T20:00:05.037Z,101666.95
2019-05-18T20:02:34.663Z,101668.14
2019-05-18T20:08:14.349Z,101678.05
2019-05-18T20:10:44.081Z,101674.50
2019-05-18T20:13:13.730Z,101683.55
2019-05-18T20:15:43.339Z,101678.98
2019-05-18T20:21:22.400Z,101682.69
2019-05-18T20:24:11.091Z,101687.59
2019-05-18T20:26:40.972Z,101680.35
2019-05-18T20:29:10.476Z,101677.27
2019-05-18T20:31:39.873Z,101682.89
2019-05-18T20:34:48.560Z,101679.39
2019-05-18T20:37:18.008Z,101685.41
2019-05-18T20:42:42.991Z,101682.88
2019-05-18T20:48:27.210Z,101670.07
2019-05-18T20:57:01.118Z,101671.56
2019-05-18T20:59:30.580Z,101668.17
2019-05-18T21:02:00.388Z,101672.31
2019-05-18T21:05:09.531Z,101680.06
2019-05-18T21:10:41.198Z,101670.97
2019-05-18T21:16:19.339Z,101675.19
2019-05-18T21:21:58.733Z,101668.86
2019-05-18T21:24:28.398Z,101673.30
2019-05-18T21:27:38.284Z,101670.11
2019-05-18T21:33:09.676Z,101662.90
2019-05-18T21:36:18.607Z,101663.75
2019-05-18T21:41:44.396Z,101660.12
2019-05-18T21:47:15.663Z,101668.57
2019-05-18T21:50:04.539Z,101669.27
2019-05-18T21:53:13.202Z,101664.78
2019-05-18T21:55:43.483Z,101669.92
2019-05-18T21:58:13.210Z,101671.03
2019-05-18T22:03:48.867Z,101670.23
2019-05-18T22:09:33.273Z,101671.00
2019-05-18T22:12:02.653Z,101669.09
2019-05-18T22:14:32.912Z,101670.80
2019-05-18T22:17:02.885Z,101673.80
2019-05-18T22:19:32.888Z,101670.73
2019-05-18T22:22:14.073Z,101676.48
2019-05-18T22:24:44.272Z,101671.31
2019-05-18T22:27:13.726Z,101673.36
2019-05-18T22:29:43.215Z,101679.19
2019-05-18T22:32:52.222Z,101679.96
2019-05-18T22:36:01.099Z,101680.73
2019-05-18T22:38:32.548Z,101680.67
2019-05-18T22:41:02.447Z,101682.11
2019-05-18T22:44:11.179Z,101686.55
2019-05-18T22:49:43.630Z,101684.37
2019-05-18T22:52:24.583Z,101692.44
2019-05-18T22:57:49.801Z,101689.32
2019-05-18T23:00:58.515Z,101689.89
2019-05-18T23:04:07.237Z,101694.19
2019-05-18T23:09:32.769Z,101694.67
2019-05-18T23:12:02.761Z,101695.23
2019-05-18T23:14:32.194Z,101692.51
2019-05-18T23:17:02.041Z,101696.51
2019-05-18T23:19:31.468Z,101590.78
2019-05-18T23:22:40.217Z,101694.60
2019-05-18T23:28:19.497Z,101682.70
2019-05-18T23:31:28.150Z,101679.11
2019-05-18T23:33:57.551Z,101678.34
2019-05-18T23:36:27.132Z,101685.67
2019-05-18T23:41:53.079Z,101698.55
2019-05-18T23:47:31.135Z,101689.36
2019-05-18T23:50:00.601Z,101687.27
2019-05-18T23:52:41.541Z,101693.04
2019-05-18T23:58:20.749Z,101679.06
